Time;durP1;ratioP1;P1;durP2;ratioP2;P2;SDS_P1;SDS_P2;PMS_P1;PMS_P2;Temp;Humidity;BMP_temperature;BMP_pressure;BME280_temperature;BME280_humidity;BME280_pressure;Samples;Min_cycle;Max_cycle;Signal;HPM_P1;HPM_P2
2022/07/28 00:02:00;;;;;;;6.67;3.55;;;;;;;22.71;100.00;99548.07;1754014;81;21534;-67
2022/07/28 00:04:27;;;;;;;3.95;2.87;;;;;;;22.69;100.00;99544.27;1735764;82;21094;-66
2022/07/28 00:06:59;;;;;;;4.12;3.45;;;;;;;22.76;100.00;99544.08;1717639;81;21000;-70
2022/07/28 00:09:25;;;;;;;4.62;3.22;;;;;;;22.77;100.00;99544.27;1720724;82;20961;-67
2022/07/28 00:11:59;;;;;;;4.60;3.02;;;;;;;22.79;100.00;99551.06;1735254;82;21000;-68
2022/07/28 00:14:28;;;;;;;8.08;4.37;;;;;;;22.80;100.00;99542.86;1725843;82;20955;-67
2022/07/28 00:17:03;;;;;;;7.72;4.10;;;;;;;22.75;100.00;99547.48;1726725;81;21003;-69
2022/07/28 00:19:37;;;;;;;9.23;4.10;;;;;;;22.66;100.00;99544.27;1767317;80;21148;-69
2022/07/28 00:22:10;;;;;;;4.70;3.33;;;;;;;22.56;100.00;99541.05;1766261;81;21573;-68
2022/07/28 00:24:39;;;;;;;4.00;3.55;;;;;;;22.48;100.00;99540.86;1767387;81;21019;-66
2022/07/28 00:27:08;;;;;;;5.55;3.90;;;;;;;22.41;100.00;99540.85;1765275;81;21331;-67
2022/07/28 00:29:45;;;;;;;4.50;2.98;;;;;;;22.35;100.00;99546.86;1765677;80;21035;-66
2022/07/28 00:32:12;;;;;;;9.60;4.03;;;;;;;22.43;100.00;99551.09;1771971;81;21322;-67
2022/07/28 00:34:49;;;;;;;5.45;3.52;;;;;;;22.49;100.00;99552.27;1749706;81;21066;-67
2022/07/28 00:37:31;;;;;;;5.80;3.27;;;;;;;22.58;100.00;99561.11;1764426;81;20982;-69
2022/07/28 00:40:00;;;;;;;5.85;3.17;;;;;;;22.63;100.00;99554.91;1768503;80;21468;-74
2022/07/28 00:42:37;;;;;;;7.80;4.10;;;;;;;22.60;100.00;99560.70;1747012;81;20983;-70
2022/07/28 00:45:08;;;;;;;5.92;3.83;;;;;;;22.59;100.00;99564.70;1754113;80;21474;-72
2022/07/28 00:47:42;;;;;;;4.35;3.50;;;;;;;22.57;100.00;99563.70;1749437;81;21581;-66
2022/07/28 00:50:14;;;;;;;6.60;4.08;;;;;;;22.55;100.00;99566.13;1753560;80;20996;-69
2022/07/28 00:52:42;;;;;;;6.75;4.47;;;;;;;22.53;100.00;99563.51;1756655;80;21015;-70
2022/07/28 00:55:10;;;;;;;6.08;3.75;;;;;;;22.43;100.00;99561.72;1757185;80;21077;-68
2022/07/28 00:57:39;;;;;;;6.97;3.92;;;;;;;22.35;100.00;99555.28;1759406;80;22001;-70
2022/07/28 01:00:10;;;;;;;8.13;3.87;;;;;;;22.33;100.00;99559.70;1732034;80;21059;-69
2022/07/28 01:02:45;;;;;;;6.08;3.65;;;;;;;22.30;100.00;99562.70;1748438;80;21098;-70
2022/07/28 01:05:15;;;;;;;3.97;3.53;;;;;;;22.30;100.00;99559.89;1756708;80;21034;-69
2022/07/28 01:08:07;;;;;;;6.55;4.30;;;;;;;22.29;100.00;99567.31;1760683;80;21199;-68
2022/07/28 01:11:12;;;;;;;5.72;3.47;;;;;;;22.24;100.00;99570.73;1758389;80;20948;-68
2022/07/28 01:14:06;;;;;;;10.18;3.77;;;;;;;22.29;100.00;99563.91;1732906;80;21093;-68
2022/07/28 01:16:33;;;;;;;9.38;3.58;;;;;;;22.22;100.00;99561.91;1745849;80;21053;-71
2022/07/28 01:19:11;;;;;;;6.45;4.05;;;;;;;22.15;100.00;99565.28;1723718;82;20939;-67
2022/07/28 01:21:44;;;;;;;5.40;3.90;;;;;;;22.09;100.00;99575.49;1724745;82;21030;-68
2022/07/28 01:24:55;;;;;;;5.45;3.85;;;;;;;22.08;100.00;99571.69;1743413;80;21538;-67
2022/07/28 01:27:50;;;;;;;6.47;3.05;;;;;;;22.11;100.00;99569.48;1772372;80;20968;-67
2022/07/28 01:30:40;;;;;;;4.17;3.30;;;;;;;22.10;100.00;99574.90;1746201;81;21512;-67
2022/07/28 01:33:16;;;;;;;4.20;3.33;;;;;;;22.08;100.00;99582.91;1750540;81;21056;-68
2022/07/28 01:35:54;;;;;;;3.95;2.90;;;;;;;22.04;100.00;99586.31;1725289;81;20982;-72
2022/07/28 01:38:24;;;;;;;6.37;3.37;;;;;;;22.03;100.00;99588.31;1739502;81;21255;-69
2022/07/28 01:40:59;;;;;;;4.90;3.00;;;;;;;21.99;100.00;99588.92;1758453;80;21041;-68
2022/07/28 01:43:30;;;;;;;7.25;3.50;;;;;;;22.03;100.00;99581.89;1779989;80;20954;-67
2022/07/28 01:46:00;;;;;;;6.70;3.50;;;;;;;22.06;100.00;99583.92;1751236;80;20978;-67
2022/07/28 01:48:32;;;;;;;4.83;3.35;;;;;;;22.01;100.00;99583.69;1741954;81;21061;-74
2022/07/28 01:51:06;;;;;;;4.33;3.20;;;;;;;22.08;100.00;99583.72;1751652;81;21122;-67
2022/07/28 01:53:33;;;;;;;4.62;3.08;;;;;;;22.09;100.00;99582.50;1724727;82;21047;-67
2022/07/28 01:56:07;;;;;;;6.30;3.87;;;;;;;22.08;100.00;99583.72;1707578;82;21085;-68
2022/07/28 01:58:37;;;;;;;;;;;;;;;22.04;100.00;99590.53;1732684;82;20962;-67
2022/07/28 02:01:08;;;;;;;6.25;3.15;;;;;;;21.98;100.00;99584.49;1722163;82;20714;-68
2022/07/28 02:03:37;;;;;;;4.72;3.45;;;;;;;21.92;100.00;99584.69;1728943;82;21133;-68
2022/07/28 02:06:12;;;;;;;4.83;3.25;;;;;;;21.88;100.00;99586.89;1724884;82;21022;-69
2022/07/28 02:08:38;;;;;;;4.00;3.35;;;;;;;21.88;100.00;99586.89;1724708;82;21025;-69
2022/07/28 02:14:19;;;;;;;4.85;3.35;;;;;;;21.82;100.00;99585.65;1763378;80;20958;-68
2022/07/28 02:16:51;;;;;;;5.00;3.37;;;;;;;21.81;100.00;99584.05;1751176;80;21409;-69
2022/07/28 02:19:18;;;;;;;7.42;3.00;;;;;;;21.79;100.00;99592.05;1766453;80;21000;-68
2022/07/28 02:21:48;;;;;;;3.47;2.72;;;;;;;21.74;100.00;99589.02;1771954;80;20903;-69
2022/07/28 02:24:27;;;;;;;;;;;;;;;21.80;100.00;99599.88;1764956;80;20912;-70
2022/07/28 02:27:13;;;;;;;3.92;2.37;;;;;;;21.82;100.00;99601.69;1775931;80;20476;-67
2022/07/28 02:29:53;;;;;;;6.45;2.83;;;;;;;21.79;100.00;99601.05;1777673;79;21548;-69
2022/07/28 02:32:48;;;;;;;2.87;2.37;;;;;;;21.79;100.00;99603.86;1761296;80;21039;-67
2022/07/28 02:35:49;;;;;;;3.83;3.08;;;;;;;21.81;100.00;99608.48;1754756;81;21098;-68
2022/07/28 02:38:29;;;;;;;4.80;2.80;;;;;;;21.81;100.00;99611.28;1751922;80;21507;-70
2022/07/28 02:41:07;;;;;;;3.62;2.27;;;;;;;21.77;100.00;99614.04;1754949;80;21048;-68
2022/07/28 02:43:45;;;;;;;6.37;3.05;;;;;;;21.76;100.00;99611.05;1725849;81;21023;-68
2022/07/28 02:46:23;;;;;;;6.53;2.52;;;;;;;21.71;100.00;99617.84;1712872;82;20921;-69
2022/07/28 02:48:56;;;;;;;2.40;2.20;;;;;;;21.78;100.00;99618.47;1728729;82;21022;-70
2022/07/28 02:51:28;;;;;;;7.28;2.98;;;;;;;21.81;100.00;99618.30;1734452;80;21396;-68
2022/07/28 02:53:58;;;;;;;4.47;2.83;;;;;;;21.86;100.00;99624.33;1713740;83;21752;-73
2022/07/28 02:56:27;;;;;;;3.90;2.80;;;;;;;21.92;100.00;99630.34;1727020;81;20939;-68
2022/07/28 02:59:00;;;;;;;3.45;2.52;;;;;;;21.96;100.00;99626.14;1758962;81;20951;-75
2022/07/28 03:01:30;;;;;;;9.78;3.00;;;;;;;22.01;100.00;99629.38;1754588;81;21096;-72
2022/07/28 03:04:00;;;;;;;3.17;2.60;;;;;;;22.04;100.00;99631.20;1730550;81;20944;-70
2022/07/28 03:06:28;;;;;;;3.72;2.87;;;;;;;22.18;100.00;99631.84;1758163;81;21653;-66
2022/07/28 03:09:05;;;;;;;4.55;2.65;;;;;;;22.12;100.00;99625.22;1753677;81;20999;-67
2022/07/28 03:11:35;;;;;;;4.47;2.97;;;;;;;22.06;100.00;99618.36;1747811;80;20983;-68
2022/07/28 03:14:05;;;;;;;6.62;2.45;;;;;;;21.97;100.00;99606.73;1753809;81;21705;-73
2022/07/28 03:16:38;;;;;;;12.80;3.08;;;;;;;21.79;100.00;99601.05;1747201;81;20930;-75
2022/07/28 03:19:09;;;;;;;6.42;2.87;;;;;;;21.65;100.00;99606.19;1759142;81;21019;-70
2022/07/28 03:21:41;;;;;;;4.95;2.72;;;;;;;21.55;100.00;99602.75;1751572;80;21050;-70
2022/07/28 03:24:11;;;;;;;4.58;3.02;;;;;;;21.56;100.00;99602.16;1755049;81;21190;-73
2022/07/28 03:26:46;;;;;;;4.22;2.90;;;;;;;21.53;100.00;99600.92;1759284;81;20998;-67
2022/07/28 03:29:16;;;;;;;3.98;2.80;;;;;;;21.53;100.00;99606.53;1755463;81;20964;-69
2022/07/28 03:31:49;;;;;;;3.55;3.08;;;;;;;21.52;100.00;99612.75;1759457;81;21049;-67
2022/07/28 03:34:26;;;;;;;3.27;2.90;;;;;;;21.60;100.00;99629.58;1757937;81;21602;-68
2022/07/28 03:36:58;;;;;;;2.67;2.47;;;;;;;21.68;100.00;99622.84;1759131;81;21475;-68
2022/07/28 03:39:26;;;;;;;7.60;3.05;;;;;;;21.71;100.00;99617.84;1758772;81;21468;-69
2022/07/28 03:41:54;;;;;;;2.65;2.15;;;;;;;21.74;100.00;99624.64;1759962;81;20950;-68
2022/07/28 03:44:28;;;;;;;3.05;2.58;;;;;;;21.75;100.00;99622.84;1760232;81;20938;-67
2022/07/28 03:46:56;;;;;;;3.95;2.87;;;;;;;21.79;100.00;99624.30;1759160;81;21109;-67
2022/07/28 03:49:32;;;;;;;7.33;2.98;;;;;;;21.82;100.00;99629.11;1755753;81;21074;-67
2022/07/28 03:52:00;;;;;;;3.98;3.17;;;;;;;21.86;100.00;99631.34;1759972;81;21014;-70
2022/07/28 03:54:28;;;;;;;4.80;2.67;;;;;;;21.94;100.00;99627.16;1759223;81;21539;-66
2022/07/28 03:57:00;;;;;;;4.53;2.30;;;;;;;21.96;100.00;99622.75;1762061;81;20999;-71
2022/07/28 03:59:34;;;;;;;3.98;2.75;;;;;;;21.97;100.00;99624.97;1759381;81;21102;-68
2022/07/28 04:02:11;;;;;;;5.10;2.90;;;;;;;21.96;100.00;99628.95;1757196;81;21015;-69
2022/07/28 04:04:40;;;;;;;4.50;2.58;;;;;;;21.98;100.00;99632.98;1759450;81;21023;-67
2022/07/28 04:07:07;;;;;;;6.78;2.62;;;;;;;22.06;100.00;99635.81;1754241;81;20984;-68
2022/07/28 04:09:36;;;;;;;4.85;2.90;;;;;;;22.06;100.00;99640.02;1754294;81;21115;-67
2022/07/28 04:12:07;;;;;;;6.95;2.87;;;;;;;22.09;100.00;99642.81;1759343;81;20956;-69
2022/07/28 04:14:44;;;;;;;4.40;2.50;;;;;;;22.08;100.00;99645.42;1754286;80;20931;-69
2022/07/28 04:17:13;;;;;;;5.30;3.37;;;;;;;22.11;100.00;99644.63;1759527;81;21021;-68
2022/07/28 04:19:45;;;;;;;6.03;3.23;;;;;;;22.11;100.00;99641.83;1750864;81;20964;-70
2022/07/28 04:22:18;;;;;;;6.72;2.75;;;;;;;22.15;100.00;99642.42;1752943;81;20956;-67
2022/07/28 04:27:26;;;;;;;5.50;2.72;;;;;;;22.27;100.00;99640.66;1740555;81;20931;-68
2022/07/28 04:30:03;;;;;;;5.17;3.35;;;;;;;22.33;100.00;99640.46;1759717;80;20959;-73
2022/07/28 04:32:37;;;;;;;10.98;2.80;;;;;;;22.37;100.00;99632.05;1729256;82;21144;-66
2022/07/28 04:35:13;;;;;;;4.33;2.02;;;;;;;22.44;100.00;99636.87;1745044;81;21503;-68
2022/07/28 04:37:43;;;;;;;9.88;2.40;;;;;;;22.44;100.00;99625.05;1758684;81;22058;-69
2022/07/28 04:40:12;;;;;;;3.35;1.98;;;;;;;22.39;100.00;99632.46;1759937;81;20975;-69
2022/07/28 04:42:44;;;;;;;4.80;1.98;;;;;;;22.43;100.00;99635.28;1759829;81;21452;-66
2022/07/28 04:45:12;;;;;;;4.50;2.25;;;;;;;22.54;100.00;99636.67;1759869;81;20927;-67
2022/07/28 04:47:46;;;;;;;7.05;2.25;;;;;;;22.63;100.00;99638.53;1759870;81;21006;-69
2022/07/28 04:50:20;;;;;;;4.45;1.90;;;;;;;22.53;100.00;99635.08;1759937;81;21131;-68
2022/07/28 04:52:49;;;;;;;3.72;1.95;;;;;;;22.52;100.00;99637.70;1736016;81;20915;-67
2022/07/28 04:55:19;;;;;;;4.42;1.90;;;;;;;22.49;100.00;99637.88;1759342;81;20987;-67
2022/07/28 04:57:49;;;;;;;4.80;2.00;;;;;;;22.48;100.00;99633.48;1734544;81;20995;-67
2022/07/28 05:00:21;;;;;;;7.40;2.50;;;;;;;22.50;100.00;99632.48;1754107;80;21424;-67
2022/07/28 05:02:52;;;;;;;3.80;2.50;;;;;;;22.53;100.00;99635.89;1765224;80;20979;-69
2022/07/28 05:05:21;;;;;;;6.12;1.92;;;;;;;22.50;100.00;99636.08;1766389;80;21011;-72
2022/07/28 05:07:53;;;;;;;6.08;2.35;;;;;;;22.53;100.00;99642.09;1763349;80;21007;-69
2022/07/28 05:10:20;;;;;;;8.50;2.60;;;;;;;22.53;100.00;99642.09;1759364;80;21572;-72
2022/07/28 05:12:53;;;;;;;6.95;2.47;;;;;;;22.59;100.00;99631.47;1771370;79;21472;-67
2022/07/28 05:15:26;;;;;;;10.00;1.82;;;;;;;22.67;100.00;99633.70;1746332;81;21121;-67
2022/07/28 05:18:00;;;;;;;2.27;1.20;;;;;;;22.77;100.00;99629.31;1745374;80;21035;-74
2022/07/28 05:20:34;;;;;;;5.25;1.80;;;;;;;22.75;100.00;99635.92;1767215;80;21499;-67
2022/07/28 05:23:03;;;;;;;5.25;1.98;;;;;;;22.80;100.00;99641.14;1778955;80;20977;-69
2022/07/28 05:25:31;;;;;;;4.53;1.65;;;;;;;22.83;100.00;99631.91;1762517;80;21050;-68
2022/07/28 05:28:05;;;;;;;7.50;1.70;;;;;;;22.93;100.00;99636.50;1775190;80;21110;-69
2022/07/28 05:30:48;;;;;;;2.95;1.50;;;;;;;22.98;100.00;99629.07;1742476;80;20939;-67
2022/07/28 05:33:18;;;;;;;6.58;1.60;;;;;;;23.05;100.00;99628.27;1757201;81;21482;-67
2022/07/28 05:36:01;;;;;;;2.52;1.52;;;;;;;23.13;100.00;99631.88;1760079;81;20939;-67
2022/07/28 05:38:30;;;;;;;3.25;1.65;;;;;;;23.17;100.00;99636.88;1759952;81;21469;-67
2022/07/28 05:41:07;;;;;;;5.53;1.52;;;;;;;23.20;100.00;99638.27;1741476;80;21865;-69
2022/07/28 05:43:36;;;;;;;4.60;1.87;;;;;;;23.24;100.00;99643.89;1764520;80;21464;-79
2022/07/28 05:46:08;;;;;;;3.35;1.70;;;;;;;23.23;100.00;99651.51;1764325;80;21038;-69
2022/07/28 05:48:42;;;;;;;1.47;1.20;;;;;;;23.31;100.00;99652.91;1759234;80;21519;-69
2022/07/28 05:51:12;;;;;;;2.92;1.67;;;;;;;23.35;100.00;99660.11;1729686;81;20998;-68
2022/07/28 05:53:47;;;;;;;6.65;1.50;;;;;;;23.42;100.00;99665.58;1763460;80;21709;-67
2022/07/28 05:56:21;;;;;;;4.17;1.30;;;;;;;23.49;100.00;99658.50;1755896;80;20962;-66
2022/07/28 05:58:51;;;;;;;3.98;1.65;;;;;;;23.49;100.00;99662.72;1757485;79;21039;-70
2022/07/28 06:01:23;;;;;;;7.58;1.50;;;;;;;23.56;100.00;99657.71;1771283;80;20995;-68
2022/07/28 06:03:56;;;;;;;2.85;1.40;;;;;;;23.50;100.00;99667.16;1767857;79;21399;-72
2022/07/28 06:06:27;;;;;;;3.00;1.30;;;;;;;23.49;100.00;99671.78;1770680;80;21144;-69
2022/07/28 06:09:02;;;;;;;2.15;1.10;;;;;;;23.59;100.00;99673.14;1754480;79;21019;-68
2022/07/28 06:11:28;;;;;;;5.28;1.22;;;;;;;23.58;100.00;99673.55;1768111;81;21058;-74
2022/07/28 06:14:18;;;;;;;6.62;1.70;;;;;;;23.56;100.00;99676.77;1766801;80;21041;-69
2022/07/28 06:16:51;;;;;;;2.70;1.05;;;;;;;23.58;100.00;99677.17;1764670;81;21025;-75
2022/07/28 06:19:39;;;;;;;3.47;1.60;;;;;;;23.62;100.00;99672.13;1765971;81;21307;-68
2022/07/28 06:22:15;;;;;;;4.20;1.42;;;;;;;23.63;100.00;99683.59;1738832;82;21035;-69
2022/07/28 06:24:48;;;;;;;3.67;1.55;;;;;;;23.67;100.00;99685.18;1763863;81;21008;-68
2022/07/28 06:27:18;;;;;;;4.70;1.52;;;;;;;23.74;100.00;99687.17;1763840;81;20991;-67
2022/07/28 06:29:45;;;;;;;8.25;1.60;;;;;;;23.80;100.00;99682.72;1765722;80;21000;-72
2022/07/28 06:32:24;;;;;;;5.33;1.45;;;;;;;23.86;100.00;99681.70;1762393;81;20986;-71
2022/07/28 06:34:53;;;;;;;3.98;1.37;;;;;;;23.92;100.00;99684.88;1734683;82;21066;-67
2022/07/28 06:37:22;;;;;;;7.22;1.50;;;;;;;23.98;100.00;99681.04;1771581;80;21062;-68
2022/07/28 06:39:54;;;;;;;8.18;1.90;;;;;;;24.06;100.00;99686.23;1771259;80;20975;-68
2022/07/28 06:42:27;;;;;;;3.65;1.95;;;;;;;24.22;100.00;99689.20;1735042;82;21001;-70
2022/07/28 06:44:54;;;;;;;3.90;1.77;;;;;;;24.33;100.00;99689.13;1732878;82;21137;-67
2022/07/28 06:47:25;;;;;;;3.52;1.72;;;;;;;24.35;100.00;99687.30;1733800;82;21086;-69
2022/07/28 06:49:54;;;;;;;4.90;1.60;;;;;;;24.37;100.00;99691.92;1735561;82;21123;-67
2022/07/28 06:52:28;;;;;;;4.72;1.92;;;;;;;24.37;100.00;99689.11;1740088;81;21488;-68
2022/07/28 06:54:59;;;;;;;5.08;1.50;;;;;;;24.44;100.00;99690.48;1752217;81;21003;-70
2022/07/28 06:57:28;;;;;;;5.83;1.45;;;;;;;24.54;100.00;99689.61;1757281;81;21795;-68
2022/07/28 07:00:03;;;;;;;4.83;1.82;;;;;;;24.65;100.00;99686.70;1759103;81;21012;-67
2022/07/28 07:02:40;;;;;;;6.25;1.70;;;;;;;24.74;100.00;99687.64;1754340;81;21560;-66
2022/07/28 07:05:10;;;;;;;3.22;1.80;;;;;;;24.77;100.00;99693.86;1752061;80;21019;-67
2022/07/28 07:07:40;;;;;;;2.02;1.00;;;;;;;24.71;100.00;99689.89;1713391;82;20995;-67
2022/07/28 07:10:13;;;;;;;3.80;1.25;;;;;;;24.68;100.00;99690.72;1734635;82;21176;-69
2022/07/28 07:12:42;;;;;;;7.53;1.92;;;;;;;24.71;100.00;99693.30;1747477;80;20996;-72
2022/07/28 07:15:10;;;;;;;2.27;1.30;;;;;;;24.74;100.00;99693.28;1745205;81;21090;-68
2022/07/28 07:17:41;;;;;;;3.50;1.17;;;;;;;24.78;100.00;99691.84;1747469;80;21025;-67
2022/07/28 07:20:12;;;;;;;3.00;1.50;;;;;;;24.91;100.00;99693.58;1745521;82;21590;-67
2022/07/28 07:22:54;;;;;;;2.90;1.12;;;;;;;24.98;100.00;99689.30;1733031;82;20960;-67
2022/07/28 07:25:23;;;;;;;6.40;1.15;;;;;;;25.08;100.00;99700.28;1749092;82;21500;-67
2022/07/28 07:27:54;;;;;;;3.90;1.02;;;;;;;25.11;100.00;99697.25;1745583;82;21428;-69
2022/07/28 07:30:22;;;;;;;2.20;1.10;;;;;;;25.20;100.00;99696.14;1773517;80;20979;-67
2022/07/28 07:32:49;;;;;;;6.97;1.50;;;;;;;25.30;100.00;99699.29;1763774;80;21053;-68
2022/07/28 07:35:18;;;;;;;9.55;1.40;;;;;;;25.45;100.00;99700.75;1774622;79;21770;-68
2022/07/28 07:37:50;;;;;;;3.25;1.35;;;;;;;25.47;100.00;99694.69;1769281;80;20997;-66
2022/07/28 07:40:27;;;;;;;2.90;1.27;;;;;;;25.48;100.00;99699.91;1775622;79;21039;-72
2022/07/28 07:42:58;;;;;;;6.50;1.17;;;;;;;25.50;98.58;99706.53;1778324;80;20990;-67
2022/07/28 07:45:30;;;;;;;2.08;1.10;;;;;;;25.49;100.00;99703.51;1728508;81;20967;-66
2022/07/28 07:47:56;;;;;;;7.87;2.85;;;;;;;25.53;98.70;99716.38;1769736;79;21518;-69
2022/07/28 07:50:24;;;;;;;5.40;1.55;;;;;;;25.55;98.48;99713.13;1781139;80;21480;-68
2022/07/28 07:52:53;;;;;;;3.58;1.75;;;;;;;25.55;98.61;99709.50;1777592;79;20991;-67
2022/07/28 07:55:26;;;;;;;5.08;1.55;;;;;;;25.61;99.45;99711.45;1775082;80;20973;-68
2022/07/28 07:57:52;;;;;;;5.40;1.20;;;;;;;25.68;97.01;99712.00;1768439;80;24932;-69
2022/07/28 08:00:20;;;;;;;1.65;0.85;;;;;;;25.68;95.73;99707.77;1772994;80;21824;-67
2022/07/28 08:02:49;;;;;;;6.45;1.70;;;;;;;25.82;96.75;99708.83;1775139;79;21019;-71
2022/07/28 08:05:18;;;;;;;2.10;1.05;;;;;;;25.90;92.95;99711.75;1765918;80;21053;-67
2022/07/28 08:07:45;;;;;;;5.10;1.27;;;;;;;25.92;94.18;99712.13;1759866;79;21030;-66
2022/07/28 08:10:16;;;;;;;5.53;1.40;;;;;;;25.99;96.53;99708.42;1754537;80;20975;-66
2022/07/28 08:12:50;;;;;;;3.58;1.20;;;;;;;26.09;96.89;99711.72;1774279;80;20983;-66
2022/07/28 08:15:17;;;;;;;3.77;1.47;;;;;;;26.18;92.71;99716.05;1775559;80;20971;-66
2022/07/28 08:17:48;;;;;;;4.12;1.50;;;;;;;26.20;94.25;99713.00;1775467;79;21022;-77
2022/07/28 08:20:15;;;;;;;5.65;1.15;;;;;;;26.30;97.69;99714.08;1775152;80;20998;-67
2022/07/28 08:22:53;;;;;;;4.03;1.47;;;;;;;26.39;98.25;99712.17;1774413;80;20975;-67
2022/07/28 08:25:23;;;;;;;6.65;1.37;;;;;;;26.49;98.97;99713.23;1769365;80;21151;-67
2022/07/28 08:27:52;;;;;;;4.20;1.10;;;;;;;26.64;99.22;99708.77;1775163;80;21036;-71
2022/07/28 08:30:25;;;;;;;3.65;1.20;;;;;;;26.72;95.47;99715.91;1744498;82;20991;-67
2022/07/28 08:32:54;;;;;;;4.78;0.98;;;;;;;26.81;96.02;99716.78;1743852;81;21037;-77
2022/07/28 08:35:26;;;;;;;3.65;1.37;;;;;;;26.93;94.71;99721.03;1753394;81;21011;-74
2022/07/28 08:37:56;;;;;;;2.22;1.20;;;;;;;27.03;93.25;99720.70;1751697;81;21097;-75
2022/07/28 08:40:24;;;;;;;2.22;1.02;;;;;;;27.08;94.81;99723.84;1756833;81;20999;-75
2022/07/28 08:43:19;;;;;;;1.20;0.70;;;;;;;27.19;93.94;99730.71;1754681;81;21069;-69
2022/07/28 08:46:07;;;;;;;2.67;0.90;;;;;;;27.25;93.99;99728.80;1696392;81;21054;-76
2022/07/28 08:48:36;;;;;;;6.78;1.02;;;;;;;27.27;92.10;99724.94;1753773;80;21081;-74
2022/07/28 08:51:10;;;;;;;1.70;1.00;;;;;;;27.21;86.67;99721.83;1751545;80;21012;-77
2022/07/28 08:53:41;;;;;;;4.72;1.42;;;;;;;27.03;89.57;99713.63;1739317;81;21177;-75
2022/07/28 08:56:14;;;;;;;2.60;1.37;;;;;;;27.12;91.63;99717.33;1733036;81;21070;-78
2022/07/28 08:58:42;;;;;;;2.98;0.90;;;;;;;27.31;93.51;99718.62;1762155;80;21006;-77
2022/07/28 09:01:13;;;;;;;3.05;1.17;;;;;;;27.39;91.50;99718.67;1765889;80;21035;-71
2022/07/28 09:03:47;;;;;;;1.47;0.82;;;;;;;27.50;86.88;99720.50;1761518;80;21106;-68
2022/07/28 09:06:19;;;;;;;2.12;0.93;;;;;;;27.58;85.80;99721.95;1736777;80;21078;-67
2022/07/28 09:08:51;;;;;;;2.35;1.17;;;;;;;27.60;83.57;99722.33;1731611;80;21050;-70
2022/07/28 09:11:22;;;;;;;3.12;1.00;;;;;;;27.46;82.27;99721.38;1760231;80;21073;-67
2022/07/28 09:13:51;;;;;;;2.62;1.00;;;;;;;27.56;81.87;99728.05;1765119;80;21534;-68
2022/07/28 09:16:20;;;;;;;7.30;1.27;;;;;;;27.68;83.81;99730.86;1758949;80;21152;-70
2022/07/28 09:18:50;;;;;;;8.90;1.25;;;;;;;27.76;85.19;99727.29;1765684;80;20955;-67
2022/07/28 09:21:17;;;;;;;3.42;1.35;;;;;;;27.87;86.89;99731.33;1732486;81;21109;-67
2022/07/28 09:23:50;;;;;;;5.70;1.22;;;;;;;27.94;88.64;99728.34;1756365;80;20982;-70
2022/07/28 09:26:18;;;;;;;6.30;1.20;;;;;;;28.03;87.03;99722.73;1763211;80;21490;-69
2022/07/28 09:28:56;;;;;;;2.67;0.98;;;;;;;28.18;87.42;99727.47;1761098;80;21156;-75
2022/07/28 09:31:29;;;;;;;5.03;1.15;;;;;;;28.28;85.51;99728.47;1760745;80;21105;-66
2022/07/28 09:34:07;;;;;;;3.25;1.10;;;;;;;28.16;80.63;99734.98;1755804;80;21117;-73
2022/07/28 09:36:40;;;;;;;2.22;1.15;;;;;;;28.19;77.40;99735.52;1756033;80;21062;-68
2022/07/28 09:39:08;;;;;;;6.12;1.30;;;;;;;28.14;79.75;99736.64;1764437;80;21047;-67
2022/07/28 09:41:52;;;;;;;3.65;1.30;;;;;;;28.20;81.87;99730.64;1763578;80;21026;-68
2022/07/28 09:44:22;;;;;;;5.12;1.10;;;;;;;28.30;84.51;99733.08;1759254;80;21004;-67
2022/07/28 09:46:57;;;;;;;2.67;1.02;;;;;;;28.42;85.40;99738.72;1741805;80;21018;-68
2022/07/28 09:49:41;;;;;;;5.50;1.20;;;;;;;28.42;81.32;99733.05;1764641;80;21072;-69
2022/07/28 09:52:37;;;;;;;3.25;1.15;;;;;;;28.48;80.26;99729.87;1697732;83;21082;-67
2022/07/28 09:55:09;;;;;;;4.62;1.10;;;;;;;28.61;74.75;99732.80;1729849;80;21381;-70
2022/07/28 09:57:39;;;;;;;3.17;1.65;;;;;;;28.64;78.14;99736.80;1752630;81;21396;-67
2022/07/28 10:00:11;;;;;;;3.50;1.07;;;;;;;28.65;77.65;99737.78;1753046;81;21039;-69
2022/07/28 10:02:48;;;;;;;2.85;0.98;;;;;;;28.65;78.87;99730.69;1739514;82;20987;-69
2022/07/28 10:05:18;;;;;;;2.42;1.00;;;;;;;28.75;76.83;99732.28;1743420;82;20921;-68
2022/07/28 10:07:49;;;;;;;3.85;1.27;;;;;;;28.91;77.88;99725.23;1743434;81;21052;-66
2022/07/28 10:10:20;;;;;;;2.52;1.25;;;;;;;29.01;77.14;99731.09;1724984;83;20964;-67
2022/07/28 10:12:48;;;;;;;7.08;1.27;;;;;;;29.02;80.26;99739.76;1722071;83;21264;-68
2022/07/28 10:18:08;;;;;;;4.20;1.30;;;;;;;28.95;74.82;99727.17;1736683;82;21000;-69
2022/07/28 10:20:37;;;;;;;3.20;1.22;;;;;;;28.99;73.19;99730.11;1752167;81;20979;-68
2022/07/28 10:23:12;;;;;;;5.47;1.40;;;;;;;28.85;72.60;99731.23;1753744;81;20931;-69
2022/07/28 10:25:39;;;;;;;2.40;1.02;;;;;;;28.89;72.11;99736.20;1750377;82;21098;-69
2022/07/28 10:28:15;;;;;;;3.72;1.07;;;;;;;28.85;73.10;99737.53;1752982;81;20911;-68
2022/07/28 10:30:43;;;;;;;2.30;0.80;;;;;;;28.92;73.83;99731.06;1751697;80;21055;-68
2022/07/28 10:33:31;;;;;;;2.05;1.00;;;;;;;29.04;74.36;99729.58;1751639;81;21196;-70
2022/07/28 10:36:05;;;;;;;4.15;1.20;;;;;;;29.11;71.69;99726.38;1711424;83;20943;-67
2022/07/28 10:38:35;;;;;;;5.53;1.37;;;;;;;29.23;73.11;99730.53;1729869;82;20963;-68
2022/07/28 10:41:07;;;;;;;4.70;1.15;;;;;;;29.30;72.10;99727.52;1751672;82;20979;-69
2022/07/28 10:43:48;;;;;;;3.55;1.62;;;;;;;29.37;70.48;99737.27;1750749;82;36310;-68
2022/07/28 10:46:18;;;;;;;5.40;1.30;;;;;;;29.38;65.66;99737.43;1750329;82;21234;-68
2022/07/28 10:48:48;;;;;;;3.20;1.13;;;;;;;29.35;67.06;99732.66;1768635;79;20980;-67
2022/07/28 10:51:20;;;;;;;2.00;1.10;;;;;;;29.21;67.86;99727.34;1767787;80;21092;-68
2022/07/28 10:54:04;;;;;;;5.45;1.30;;;;;;;29.25;62.26;99725.22;1746430;81;21002;-68
2022/07/28 10:56:56;;;;;;;2.47;1.00;;;;;;;29.16;62.91;99724.42;1748508;81;21031;-71
2022/07/28 11:00:00;;;;;;;2.62;1.67;;;;;;;29.16;69.25;99726.66;1764060;81;21047;-70
2022/07/28 11:02:57;;;;;;;3.58;1.20;;;;;;;29.22;68.89;99726.92;1762171;80;21067;-68
2022/07/28 11:05:36;;;;;;;3.58;1.07;;;;;;;29.34;65.97;99727.43;1767012;80;21561;-67
2022/07/28 11:08:22;;;;;;;2.60;1.20;;;;;;;29.35;70.44;99729.81;1733723;82;21055;-69
2022/07/28 11:10:54;;;;;;;5.60;1.27;;;;;;;29.39;68.00;99742.49;1768545;80;20892;-71
2022/07/28 11:13:34;;;;;;;3.72;1.00;;;;;;;29.31;62.54;99733.36;1766538;80;21194;-69
2022/07/28 11:16:24;;;;;;;4.65;1.57;;;;;;;29.31;67.29;99729.10;1760303;79;20919;-67
2022/07/28 11:19:09;;;;;;;2.70;1.40;;;;;;;29.31;63.49;99730.52;1768714;80;21318;-70
2022/07/28 11:22:22;;;;;;;4.33;1.30;;;;;;;29.32;68.84;99722.81;1751393;81;21046;-68
2022/07/28 11:25:07;;;;;;;11.30;1.80;;;;;;;29.27;66.32;99717.07;1752089;80;21006;-68
2022/07/28 11:27:53;;;;;;;4.12;1.20;;;;;;;29.37;68.97;99725.11;1763600;81;21388;-68
2022/07/28 11:30:31;;;;;;;2.08;0.98;;;;;;;29.36;68.92;99715.80;1762109;81;21046;-70
2022/07/28 11:33:05;;;;;;;2.22;1.05;;;;;;;29.52;72.65;99714.98;1768624;80;21015;-74
2022/07/28 11:35:41;;;;;;;3.40;1.30;;;;;;;29.66;70.48;99716.47;1745039;82;21562;-71
2022/07/28 11:38:13;;;;;;;2.08;0.88;;;;;;;29.68;60.53;99712.56;1749659;80;21938;-70
2022/07/28 11:40:58;;;;;;;3.95;0.78;;;;;;;29.68;62.72;99710.53;1755099;81;22075;-68
2022/07/28 11:43:28;;;;;;;2.35;1.10;;;;;;;29.76;61.30;99707.66;1754048;81;20967;-68
2022/07/28 11:46:20;;;;;;;2.13;1.00;;;;;;;29.81;63.08;99716.23;1751087;80;21158;-70
2022/07/28 11:48:52;;;;;;;3.05;1.12;;;;;;;29.82;62.23;99719.23;1750963;81;21071;-68
2022/07/28 11:51:22;;;;;;;3.10;1.37;;;;;;;29.82;61.75;99703.63;1755206;81;21515;-68
2022/07/28 11:53:51;;;;;;;2.75;0.93;;;;;;;29.88;58.69;99701.84;1765547;79;21558;-69
2022/07/28 11:56:30;;;;;;;4.28;1.10;;;;;;;29.94;62.82;99713.42;1775486;79;21491;-69
2022/07/28 11:59:04;;;;;;;2.15;1.30;;;;;;;29.99;63.56;99708.61;1769667;80;21011;-69
2022/07/28 12:01:36;;;;;;;2.90;1.00;;;;;;;29.93;63.53;99711.04;1762824;80;21038;-69
2022/07/28 12:04:10;;;;;;;2.83;1.35;;;;;;;29.98;60.66;99711.91;1757096;81;21102;-67
2022/07/28 12:06:39;;;;;;;11.33;1.72;;;;;;;29.83;57.83;99705.23;1758924;81;21026;-72
2022/07/28 12:09:13;;;;;;;5.72;1.32;;;;;;;29.79;63.96;99710.20;1757854;81;21090;-67